Time;durP1;ratioP1;P1;durP2;ratioP2;P2;SDS_P1;SDS_P2;PMS_P1;PMS_P2;Temp;Humidity;BMP_temperature;BMP_pressure;BME280_temperature;BME280_humidity;BME280_pressure;Samples;Min_cycle;Max_cycle;Signal;HPM_P1;HPM_P2
2023/08/19 04:31:32;;;;;;;0.00;0.00;;;19.80;78.80;;;;;;5335931;23;20521;-78
2023/08/19 04:33:58;;;;;;;0.00;0.00;;;19.80;78.80;;;;;;4911053;29;20068;-77
2023/08/19 04:36:23;;;;;;;0.00;0.00;;;19.80;78.80;;;;;;4923757;29;20472;-78
2023/08/19 04:38:49;;;;;;;0.00;0.00;;;19.80;78.90;;;;;;4923941;29;20035;-79
2023/08/19 04:41:14;;;;;;;0.10;0.10;;;19.80;78.90;;;;;;4906568;29;20024;-77
2023/08/19 04:43:40;;;;;;;0.05;0.05;;;19.80;79.10;;;;;;4923666;29;20372;-77
2023/08/19 04:46:06;;;;;;;0.10;0.08;;;19.80;79.10;;;;;;4942627;29;20363;-79
2023/08/19 04:48:32;;;;;;;0.10;0.10;;;19.80;79.20;;;;;;4942724;29;20483;-79
2023/08/19 04:51:00;;;;;;;0.00;0.00;;;19.70;79.20;;;;;;4942859;29;20487;-79
2023/08/19 04:53:25;;;;;;;0.08;0.08;;;19.70;79.10;;;;;;4925426;29;20034;-77
2023/08/19 04:55:59;;;;;;;0.00;0.00;;;19.70;79.50;;;;;;4925263;29;20024;-78
2023/08/19 04:58:24;;;;;;;0.20;0.10;;;19.70;79.90;;;;;;4925299;29;20079;-79
2023/08/19 05:00:50;;;;;;;0.00;0.00;;;19.60;80.00;;;;;;4931312;29;20033;-79
2023/08/19 05:03:16;;;;;;;0.10;0.10;;;19.70;79.80;;;;;;4923278;29;20120;-79
2023/08/19 05:05:41;;;;;;;0.10;0.10;;;19.70;79.90;;;;;;4923769;29;20526;-79
2023/08/19 05:08:07;;;;;;;0.30;0.00;;;19.70;79.90;;;;;;4906386;29;20036;-79
2023/08/19 05:10:32;;;;;;;0.10;0.10;;;19.70;80.00;;;;;;4906265;29;20562;-79
2023/08/19 05:12:58;;;;;;;0.10;0.10;;;19.60;80.30;;;;;;4923410;29;20028;-79
2023/08/19 05:15:24;;;;;;;0.10;0.10;;;19.60;80.20;;;;;;4923700;29;20040;-76
2023/08/19 05:17:50;;;;;;;0.10;0.10;;;19.60;80.30;;;;;;4923536;29;20130;-76
2023/08/19 05:20:15;;;;;;;0.10;0.10;;;19.50;80.40;;;;;;4906551;29;20028;-78
2023/08/19 05:22:41;;;;;;;0.00;0.00;;;19.60;80.40;;;;;;4923220;29;20024;-79
2023/08/19 05:25:08;;;;;;;0.00;0.00;;;19.60;80.10;;;;;;4923347;29;20479;-79
2023/08/19 05:27:34;;;;;;;0.03;0.03;;;19.50;80.20;;;;;;4923389;29;20083;-79
2023/08/19 05:29:59;;;;;;;0.00;0.00;;;19.50;80.70;;;;;;4923352;29;20028;-79
2023/08/19 05:32:25;;;;;;;0.10;0.10;;;19.50;80.70;;;;;;4922997;29;20060;-79
2023/08/19 05:34:51;;;;;;;0.08;0.08;;;19.50;80.50;;;;;;4906120;29;20031;-79
2023/08/19 05:37:16;;;;;;;0.15;0.00;;;19.50;80.50;;;;;;4922859;29;20039;-79
2023/08/19 05:39:42;;;;;;;0.10;0.10;;;19.50;80.60;;;;;;4923161;29;20029;-79
2023/08/19 05:42:07;;;;;;;0.10;0.10;;;19.40;80.70;;;;;;4923105;29;20091;-79
2023/08/19 05:44:33;;;;;;;0.10;0.10;;;19.40;80.40;;;;;;4905921;29;20024;-79
2023/08/19 05:46:58;;;;;;;0.10;0.10;;;19.40;80.30;;;;;;4923008;29;20115;-79
2023/08/19 05:49:24;;;;;;;0.10;0.10;;;19.40;80.50;;;;;;4923009;29;20530;-79
2023/08/19 05:51:50;;;;;;;0.00;0.00;;;19.40;80.40;;;;;;4923040;29;20028;-79
2023/08/19 05:54:15;;;;;;;0.10;0.10;;;19.50;80.40;;;;;;4922824;29;20103;-79
2023/08/19 05:56:41;;;;;;;0.10;0.10;;;19.50;80.20;;;;;;4922801;29;20055;-79
2023/08/19 05:59:06;;;;;;;0.03;0.03;;;19.50;80.00;;;;;;4922938;29;20035;-79
2023/08/19 06:01:32;;;;;;;0.10;0.10;;;19.60;80.10;;;;;;4922563;29;20117;-79
2023/08/19 06:03:58;;;;;;;0.05;0.05;;;19.60;80.10;;;;;;4922617;29;20044;-79
2023/08/19 06:06:23;;;;;;;0.10;0.10;;;19.60;80.00;;;;;;4922553;29;20035;-79
2023/08/19 06:08:49;;;;;;;0.05;0.05;;;19.60;80.30;;;;;;4922673;29;20496;-79
2023/08/19 06:11:14;;;;;;;0.35;0.10;;;19.60;80.50;;;;;;4905550;29;20055;-79
2023/08/19 06:13:40;;;;;;;0.10;0.10;;;19.60;80.60;;;;;;4922655;29;20361;-79
2023/08/19 06:16:06;;;;;;;0.10;0.10;;;19.80;80.60;;;;;;4905424;29;20080;-78
2023/08/19 06:18:32;;;;;;;0.10;0.10;;;19.90;80.40;;;;;;4922550;29;20032;-76
2023/08/19 06:20:58;;;;;;;0.13;0.10;;;19.90;80.70;;;;;;4921985;29;20032;-76
2023/08/19 06:23:24;;;;;;;0.10;0.10;;;19.90;80.90;;;;;;4921061;29;20032;-76
2023/08/19 06:25:52;;;;;;;0.10;0.10;;;20.00;80.90;;;;;;4922230;29;20129;-76
2023/08/19 06:28:18;;;;;;;0.10;0.10;;;20.00;81.10;;;;;;4922282;29;20057;-78
2023/08/19 06:30:45;;;;;;;0.10;0.10;;;20.20;80.80;;;;;;4922088;29;20044;-76
2023/08/19 06:33:12;;;;;;;0.10;0.10;;;20.20;80.60;;;;;;4907390;29;20511;-76
2023/08/19 06:35:38;;;;;;;0.10;0.10;;;20.20;80.60;;;;;;4921614;29;20020;-79
2023/08/19 06:38:10;;;;;;;0.10;0.10;;;20.40;80.60;;;;;;4922016;29;20494;-78
2023/08/19 06:40:40;;;;;;;0.10;0.10;;;20.40;80.00;;;;;;4922054;29;20084;-79
2023/08/19 06:43:07;;;;;;;0.10;0.10;;;20.60;79.40;;;;;;4921964;29;20024;-79
2023/08/19 06:45:34;;;;;;;0.10;0.10;;;20.50;79.30;;;;;;4905089;29;20024;-78
2023/08/19 06:48:02;;;;;;;0.10;0.10;;;20.50;79.20;;;;;;4921962;29;20024;-79
2023/08/19 06:50:28;;;;;;;0.03;0.03;;;20.50;79.30;;;;;;4921860;29;20032;-79
2023/08/19 06:52:54;;;;;;;0.10;0.10;;;20.60;78.70;;;;;;4921947;29;20017;-79
2023/08/19 06:55:20;;;;;;;0.10;0.10;;;20.70;78.80;;;;;;4921806;29;20525;-79
2023/08/19 06:58:09;;;;;;;0.08;0.08;;;20.70;78.70;;;;;;4922010;29;20024;-79
2023/08/19 07:00:37;;;;;;;0.10;0.10;;;20.80;78.90;;;;;;4921841;29;20479;-79
2023/08/19 07:03:04;;;;;;;0.10;0.10;;;20.70;78.50;;;;;;4904507;29;20028;-78
2023/08/19 07:05:30;;;;;;;0.10;0.10;;;20.70;78.70;;;;;;4921913;29;20020;-78
2023/08/19 07:07:57;;;;;;;0.10;0.10;;;20.70;78.70;;;;;;4921341;29;20035;-78
2023/08/19 07:10:23;;;;;;;0.10;0.10;;;20.60;79.10;;;;;;4921536;29;20020;-78
2023/08/19 07:12:49;;;;;;;0.10;0.10;;;20.50;78.90;;;;;;4904548;29;20551;-78
2023/08/19 07:15:15;;;;;;;0.10;0.10;;;20.70;79.00;;;;;;4921757;29;20439;-78
2023/08/19 07:17:46;;;;;;;0.10;0.10;;;20.60;78.60;;;;;;4921712;29;20024;-78
2023/08/19 07:20:17;;;;;;;0.10;0.10;;;20.70;78.40;;;;;;4921757;29;20125;-78
2023/08/19 07:22:47;;;;;;;0.10;0.10;;;20.80;78.30;;;;;;4921500;29;20047;-78
2023/08/19 07:25:14;;;;;;;0.10;0.10;;;20.90;78.10;;;;;;4921567;29;20032;-78
2023/08/19 07:27:42;;;;;;;0.10;0.10;;;21.10;77.40;;;;;;4921288;29;20106;-78
2023/08/19 07:30:09;;;;;;;0.10;0.10;;;21.30;76.40;;;;;;4921015;29;20125;-78
2023/08/19 07:32:36;;;;;;;0.00;0.00;;;21.30;76.10;;;;;;4904151;29;20039;-78
2023/08/19 07:35:02;;;;;;;0.10;0.10;;;21.50;75.80;;;;;;4921334;29;20388;-79
2023/08/19 07:37:28;;;;;;;0.10;0.10;;;21.60;75.50;;;;;;4921204;29;20394;-78
2023/08/19 07:39:54;;;;;;;0.08;0.08;;;21.70;75.20;;;;;;4921530;29;20028;-79
2023/08/19 07:42:20;;;;;;;0.10;0.10;;;21.50;75.00;;;;;;4921141;29;20401;-78
2023/08/19 07:44:46;;;;;;;0.10;0.10;;;21.50;75.00;;;;;;4921232;29;20549;-79
2023/08/19 07:47:11;;;;;;;0.10;0.10;;;21.40;75.00;;;;;;4923161;29;20035;-79
2023/08/19 07:49:38;;;;;;;0.10;0.10;;;21.50;75.20;;;;;;4925008;29;20055;-79
2023/08/19 07:52:04;;;;;;;0.00;0.00;;;22.00;74.30;;;;;;4924944;29;20028;-78
2023/08/19 07:54:30;;;;;;;0.10;0.10;;;21.90;73.80;;;;;;4925106;29;20487;-78
2023/08/19 07:56:57;;;;;;;0.20;0.20;;;21.80;74.30;;;;;;4924860;29;20032;-78
2023/08/19 07:59:27;;;;;;;0.17;0.17;;;22.00;74.20;;;;;;4925086;29;20025;-79
2023/08/19 08:01:54;;;;;;;0.10;0.10;;;22.60;73.20;;;;;;4911587;29;20032;-79
2023/08/19 08:04:21;;;;;;;0.10;0.10;;;23.30;69.30;;;;;;4907711;29;20120;-77
2023/08/19 08:06:50;;;;;;;0.10;0.10;;;24.30;67.10;;;;;;4924609;29;20048;-77
2023/08/19 08:09:16;;;;;;;0.10;0.10;;;24.80;64.60;;;;;;4924814;29;20032;-77
2023/08/19 08:11:43;;;;;;;0.10;0.10;;;24.90;64.10;;;;;;4924665;29;20024;-77
2023/08/19 08:14:09;;;;;;;0.10;0.10;;;24.70;64.20;;;;;;4924987;29;20028;-77
2023/08/19 08:16:35;;;;;;;0.00;0.00;;;23.90;65.00;;;;;;4924819;29;20117;-78
2023/08/19 08:19:01;;;;;;;0.40;0.40;;;23.20;67.40;;;;;;4907655;29;20032;-77
2023/08/19 08:21:26;;;;;;;0.00;0.00;;;25.30;64.90;;;;;;4907364;29;20065;-78
2023/08/19 08:23:54;;;;;;;0.43;0.43;;;25.80;62.50;;;;;;4924608;29;20031;-78
2023/08/19 08:26:23;;;;;;;0.20;0.20;;;26.70;61.00;;;;;;4923467;29;20039;-78
2023/08/19 08:28:51;;;;;;;0.10;0.10;;;26.90;60.10;;;;;;4924470;29;20428;-78
2023/08/19 08:31:17;;;;;;;0.20;0.20;;;26.00;60.80;;;;;;4907197;29;20131;-77
2023/08/19 08:33:42;;;;;;;0.30;0.30;;;25.80;61.60;;;;;;4907386;29;20020;-78
2023/08/19 08:36:08;;;;;;;0.20;0.20;;;26.30;61.50;;;;;;4924228;29;20472;-78
2023/08/19 08:38:34;;;;;;;0.15;0.15;;;26.50;59.40;;;;;;4924213;29;20645;-78
2023/08/19 08:41:03;;;;;;;0.13;0.13;;;27.20;57.60;;;;;;4924098;29;20039;-77
2023/08/19 08:43:33;;;;;;;0.30;0.30;;;27.80;55.30;;;;;;4924141;29;20076;-78
2023/08/19 08:46:00;;;;;;;0.40;0.40;;;28.30;53.70;;;;;;4924071;29;20028;-78
2023/08/19 08:48:30;;;;;;;0.30;0.30;;;28.30;54.10;;;;;;4907068;29;20040;-78
2023/08/19 08:50:56;;;;;;;0.50;0.50;;;29.10;52.20;;;;;;4924063;29;20035;-78
2023/08/19 08:53:23;;;;;;;0.00;0.00;;;29.70;50.10;;;;;;4923996;29;20086;-78
2023/08/19 08:55:51;;;;;;;0.20;0.20;;;28.70;50.00;;;;;;4906784;29;20024;-78
2023/08/19 08:58:17;;;;;;;0.00;0.00;;;27.90;52.20;;;;;;4923413;29;20471;-77
2023/08/19 09:00:44;;;;;;;0.10;0.10;;;26.70;53.80;;;;;;4923810;29;20036;-77
2023/08/19 09:03:11;;;;;;;0.00;0.00;;;26.60;56.00;;;;;;4923747;29;20039;-77
2023/08/19 09:05:38;;;;;;;0.10;0.10;;;26.30;55.70;;;;;;4923734;29;20028;-77
2023/08/19 09:08:09;;;;;;;0.10;0.10;;;26.00;56.50;;;;;;4923530;29;20791;-77
2023/08/19 09:10:36;;;;;;;0.00;0.00;;;25.80;57.20;;;;;;4923969;29;20032;-78
2023/08/19 09:13:04;;;;;;;0.10;0.10;;;25.80;58.10;;;;;;4923629;29;20028;-77
2023/08/19 09:15:30;;;;;;;0.10;0.10;;;26.60;56.50;;;;;;4923550;29;20072;-77
2023/08/19 09:17:57;;;;;;;0.10;0.10;;;27.00;55.90;;;;;;4908116;29;20024;-77
2023/08/19 09:20:24;;;;;;;0.00;0.00;;;27.60;53.70;;;;;;4906491;29;20454;-77
2023/08/19 09:22:50;;;;;;;0.00;0.00;;;27.10;53.60;;;;;;4923541;29;20024;-77
2023/08/19 09:25:16;;;;;;;0.00;0.00;;;26.60;55.40;;;;;;4906367;29;20125;-77
2023/08/19 09:27:44;;;;;;;0.00;0.00;;;26.30;55.70;;;;;;4923381;29;20476;-77
2023/08/19 09:30:15;;;;;;;0.30;0.30;;;25.90;56.80;;;;;;4923336;29;20032;-77
2023/08/19 09:32:41;;;;;;;0.10;0.10;;;26.10;57.10;;;;;;4923434;29;20028;-77
2023/08/19 09:35:14;;;;;;;0.08;0.08;;;26.50;56.30;;;;;;4923414;29;20551;-78
2023/08/19 09:37:41;;;;;;;0.20;0.20;;;26.50;55.60;;;;;;4923201;29;20050;-77
2023/08/19 09:40:11;;;;;;;0.10;0.10;;;26.80;54.90;;;;;;4923337;29;20079;-77
2023/08/19 09:42:38;;;;;;;0.30;0.30;;;27.40;54.70;;;;;;4905788;29;20038;-78
2023/08/19 09:45:05;;;;;;;0.25;0.25;;;27.30;51.60;;;;;;4923148;29;20025;-77
2023/08/19 09:47:51;;;;;;;0.32;0.32;;;27.40;52.00;;;;;;4922990;29;20032;-78
2023/08/19 09:50:22;;;;;;;0.75;0.75;;;27.90;52.40;;;;;;4922790;29;20032;-78
2023/08/19 09:53:00;;;;;;;0.35;0.35;;;28.00;51.10;;;;;;4923188;29;20024;-77
2023/08/19 09:55:30;;;;;;;0.10;0.10;;;28.60;50.30;;;;;;4905629;29;20035;-77
2023/08/19 09:57:56;;;;;;;0.10;0.10;;;29.10;49.30;;;;;;4923072;29;20619;-78
2023/08/19 10:00:22;;;;;;;0.10;0.10;;;29.60;48.80;;;;;;4922558;29;20043;-78
2023/08/19 10:02:48;;;;;;;0.00;0.00;;;29.80;47.70;;;;;;4922777;29;20123;-77
2023/08/19 10:05:15;;;;;;;0.10;0.10;;;29.70;46.60;;;;;;4922799;29;20495;-78
2023/08/19 10:07:52;;;;;;;0.10;0.10;;;29.50;47.30;;;;;;4922429;29;20032;-77
2023/08/19 10:10:19;;;;;;;0.00;0.00;;;29.30;48.80;;;;;;4904725;29;20032;-78
2023/08/19 10:12:46;;;;;;;0.10;0.10;;;28.50;49.20;;;;;;4922680;29;20032;-77
2023/08/19 10:15:13;;;;;;;0.20;0.20;;;28.30;50.60;;;;;;4922503;29;20028;-77
2023/08/19 10:17:46;;;;;;;0.10;0.10;;;28.10;50.50;;;;;;4913482;29;20507;-77
2023/08/19 10:20:17;;;;;;;0.57;0.57;;;28.00;51.30;;;;;;4921315;29;20028;-77
2023/08/19 10:22:47;;;;;;;0.10;0.10;;;27.90;51.20;;;;;;4922507;29;20025;-77
2023/08/19 10:25:18;;;;;;;0.15;0.15;;;28.00;51.70;;;;;;4922513;29;20542;-77
2023/08/19 10:27:43;;;;;;;0.40;0.40;;;28.10;51.70;;;;;;4920979;29;20036;-78
2023/08/19 10:30:24;;;;;;;0.10;0.10;;;28.40;51.00;;;;;;4921898;29;20032;-78
2023/08/19 10:32:50;;;;;;;0.10;0.10;;;28.60;49.80;;;;;;4922077;29;20097;-78
2023/08/19 10:35:17;;;;;;;0.10;0.10;;;28.50;48.70;;;;;;4905193;29;20036;-78
2023/08/19 10:37:45;;;;;;;0.10;0.10;;;28.30;50.30;;;;;;4904454;29;20075;-77
2023/08/19 10:40:12;;;;;;;0.10;0.10;;;28.00;51.20;;;;;;4904959;29;20176;-77
2023/08/19 10:42:39;;;;;;;0.10;0.10;;;28.00;51.10;;;;;;4904802;29;20479;-77
2023/08/19 10:45:15;;;;;;;0.00;0.00;;;28.00;51.50;;;;;;4922020;29;20592;-77
2023/08/19 10:47:41;;;;;;;0.10;0.10;;;28.00;51.60;;;;;;4922241;29;20483;-78
2023/08/19 10:50:07;;;;;;;0.10;0.10;;;28.10;52.10;;;;;;4921682;29;20032;-77
2023/08/19 10:52:33;;;;;;;0.10;0.10;;;28.20;52.00;;;;;;4922029;29;20026;-77
2023/08/19 10:55:04;;;;;;;0.10;0.10;;;27.90;52.50;;;;;;4921662;29;20107;-77
2023/08/19 10:57:30;;;;;;;0.08;0.08;;;27.70;52.10;;;;;;4904754;29;20427;-77
2023/08/19 10:59:57;;;;;;;0.10;0.10;;;27.40;52.10;;;;;;4921380;29;20036;-77
2023/08/19 11:02:25;;;;;;;0.00;0.00;;;27.20;52.40;;;;;;4921660;29;20032;-77
2023/08/19 11:04:51;;;;;;;0.00;0.00;;;27.00;52.80;;;;;;4921725;29;20088;-77
2023/08/19 11:07:18;;;;;;;0.10;0.10;;;26.90;52.60;;;;;;4904466;29;20024;-77
2023/08/19 11:09:46;;;;;;;0.10;0.10;;;26.80;53.40;;;;;;4921659;29;20094;-77
2023/08/19 11:12:16;;;;;;;0.10;0.10;;;26.80;52.90;;;;;;4921752;29;20044;-77
2023/08/19 11:14:48;;;;;;;0.00;0.00;;;26.90;54.90;;;;;;4904420;29;20024;-77
2023/08/19 11:17:14;;;;;;;0.00;0.00;;;26.80;54.60;;;;;;4921579;29;20542;-77
2023/08/19 11:19:40;;;;;;;0.00;0.00;;;26.70;52.00;;;;;;4921609;29;20395;-77
2023/08/19 11:22:05;;;;;;;0.00;0.00;;;26.80;53.90;;;;;;4920732;29;20040;-77
2023/08/19 11:24:33;;;;;;;0.05;0.05;;;26.80;54.20;;;;;;4921560;29;20025;-77
2023/08/19 11:26:59;;;;;;;0.10;0.10;;;26.90;54.00;;;;;;4921334;29;20024;-77
2023/08/19 11:29:25;;;;;;;0.10;0.10;;;26.70;53.10;;;;;;4904267;29;20039;-77
2023/08/19 11:31:51;;;;;;;0.00;0.00;;;26.70;53.70;;;;;;4921078;29;20040;-77
2023/08/19 11:34:17;;;;;;;0.00;0.00;;;26.60;53.50;;;;;;4921431;29;20116;-77
2023/08/19 11:36:46;;;;;;;0.10;0.10;;;26.40;53.50;;;;;;4921129;29;20035;-77
2023/08/19 11:39:12;;;;;;;0.10;0.10;;;26.60;53.10;;;;;;4904303;29;20028;-77
2023/08/19 11:41:38;;;;;;;0.10;0.10;;;26.80;54.90;;;;;;4921212;29;20395;-77
2023/08/19 11:44:06;;;;;;;0.03;0.03;;;26.80;52.50;;;;;;4904492;29;20043;-77
2023/08/19 11:46:35;;;;;;;0.00;0.00;;;26.90;54.10;;;;;;4903999;29;20028;-77
2023/08/19 11:49:09;;;;;;;0.10;0.10;;;26.80;53.30;;;;;;4921058;29;20499;-77
2023/08/19 11:51:39;;;;;;;0.00;0.00;;;26.80;52.50;;;;;;4921291;29;20055;-77
2023/08/19 11:54:07;;;;;;;0.00;0.00;;;27.20;53.00;;;;;;4904226;29;20024;-77
2023/08/19 11:56:52;;;;;;;0.05;0.05;;;27.10;51.80;;;;;;4920997;29;20076;-77
2023/08/19 11:59:26;;;;;;;0.10;0.10;;;27.00;53.00;;;;;;4904088;29;20036;-77
2023/08/19 12:01:52;;;;;;;0.00;0.00;;;27.30;53.00;;;;;;4907825;29;20041;-77
2023/08/19 12:04:18;;;;;;;0.10;0.10;;;27.50;54.60;;;;;;4921246;29;20110;-77
2023/08/19 12:06:46;;;;;;;0.10;0.10;;;27.50;53.30;;;;;;4920855;29;20632;-77
2023/08/19 12:09:12;;;;;;;0.10;0.10;;;27.70;51.40;;;;;;4903812;29;20040;-77
2023/08/19 12:11:38;;;;;;;0.10;0.10;;;27.90;52.00;;;;;;4920880;29;20022;-77
2023/08/19 12:14:05;;;;;;;0.10;0.10;;;28.10;51.30;;;;;;4921119;29;20028;-77
2023/08/19 12:16:31;;;;;;;0.10;0.10;;;28.10;51.60;;;;;;4919594;29;20027;-78
2023/08/19 12:18:57;;;;;;;0.00;0.00;;;28.00;49.50;;;;;;4920983;29;20032;-77
2023/08/19 12:21:23;;;;;;;0.10;0.10;;;27.50;51.00;;;;;;4920903;29;20111;-77
2023/08/19 12:23:49;;;;;;;0.10;0.10;;;27.30;51.30;;;;;;4921041;29;20090;-77
2023/08/19 12:26:15;;;;;;;0.00;0.00;;;27.50;51.90;;;;;;4920790;29;20036;-77
2023/08/19 12:28:40;;;;;;;0.10;0.10;;;27.80;52.00;;;;;;4920309;29;20071;-77
2023/08/19 12:31:06;;;;;;;0.00;0.00;;;27.80;51.10;;;;;;4920955;29;20083;-77
2023/08/19 12:33:31;;;;;;;0.00;0.00;;;27.80;51.60;;;;;;4923028;29;20408;-77
2023/08/19 12:35:57;;;;;;;0.10;0.10;;;27.40;50.50;;;;;;4924286;29;20451;-77
2023/08/19 12:38:23;;;;;;;0.10;0.10;;;27.50;50.70;;;;;;4924172;29;20028;-77
2023/08/19 12:40:48;;;;;;;0.10;0.10;;;27.80;52.20;;;;;;4924360;29;20103;-77
2023/08/19 12:43:15;;;;;;;0.00;0.00;;;27.90;50.50;;;;;;4924308;29;20028;-77
2023/08/19 12:45:41;;;;;;;0.00;0.00;;;27.90;51.00;;;;;;4924144;29;20032;-77
2023/08/19 12:48:08;;;;;;;0.10;0.10;;;27.70;50.80;;;;;;4924021;29;20502;-77
2023/08/19 12:50:34;;;;;;;0.00;0.00;;;27.60;50.50;;;;;;4907053;29;20384;-77
2023/08/19 12:53:00;;;;;;;0.10;0.10;;;27.70;49.00;;;;;;4923988;29;20039;-77
2023/08/19 12:55:27;;;;;;;0.10;0.10;;;27.70;51.40;;;;;;4906730;29;20024;-77
2023/08/19 12:57:55;;;;;;;0.10;0.10;;;27.80;50.50;;;;;;4923945;29;20034;-77
2023/08/19 13:00:25;;;;;;;0.00;0.00;;;28.00;50.90;;;;;;4923791;29;20168;-77
2023/08/19 13:02:51;;;;;;;0.10;0.10;;;28.10;51.30;;;;;;4906608;29;20043;-77
2023/08/19 13:05:17;;;;;;;0.05;0.05;;;28.10;49.90;;;;;;4906816;29;20199;-77
2023/08/19 13:07:42;;;;;;;0.10;0.10;;;28.00;49.90;;;;;;4923779;29;20028;-77
2023/08/19 13:10:10;;;;;;;0.10;0.10;;;28.00;51.10;;;;;;4906647;29;20028;-77
2023/08/19 13:12:37;;;;;;;0.10;0.10;;;28.00;49.60;;;;;;4923881;29;20028;-77
2023/08/19 13:15:03;;;;;;;0.10;0.10;;;27.90;48.90;;;;;;4906607;29;20071;-77
2023/08/19 13:17:28;;;;;;;0.10;0.10;;;28.00;50.20;;;;;;4906668;29;20028;-77
2023/08/19 13:19:54;;;;;;;0.10;0.10;;;28.30;50.20;;;;;;4923671;29;20024;-77
2023/08/19 13:22:21;;;;;;;0.00;0.00;;;28.30;49.70;;;;;;4923367;29;20036;-77
2023/08/19 13:24:50;;;;;;;0.00;0.00;;;28.30;50.20;;;;;;4906648;29;20028;-77
2023/08/19 13:27:17;;;;;;;0.00;0.00;;;28.20;49.10;;;;;;4923010;29;20111;-77
2023/08/19 13:29:44;;;;;;;0.00;0.00;;;28.00;49.30;;;;;;4923426;29;20032;-77
2023/08/19 13:32:10;;;;;;;0.00;0.00;;;27.80;48.60;;;;;;4923031;29;20040;-77
2023/08/19 13:34:36;;;;;;;0.10;0.10;;;27.80;49.30;;;;;;4923252;29;20024;-77
2023/08/19 13:37:03;;;;;;;0.05;0.05;;;27.80;49.80;;;;;;4906109;29;20024;-77
2023/08/19 13:39:29;;;;;;;0.10;0.10;;;27.90;50.20;;;;;;4923306;29;20047;-77
2023/08/19 13:41:55;;;;;;;0.10;0.10;;;27.90;49.40;;;;;;4905843;29;20032;-77
2023/08/19 13:44:25;;;;;;;0.10;0.10;;;28.00;49.50;;;;;;4923162;29;20028;-77
2023/08/19 13:46:53;;;;;;;0.10;0.10;;;28.00;50.20;;;;;;4905994;29;20032;-77
2023/08/19 13:49:19;;;;;;;0.00;0.00;;;28.10;49.60;;;;;;4923147;29;20029;-77
2023/08/19 13:51:49;;;;;;;0.00;0.00;;;27.90;48.50;;;;;;4922896;29;20546;-77
2023/08/19 13:54:17;;;;;;;0.10;0.10;;;27.90;49.10;;;;;;4923015;29;20099;-77
2023/08/19 13:56:48;;;;;;;0.00;0.00;;;28.00;50.20;;;;;;4923011;29;20035;-77
2023/08/19 13:59:14;;;;;;;0.00;0.00;;;28.20;49.70;;;;;;4922856;29;20061;-77
2023/08/19 14:01:39;;;;;;;0.08;0.08;;;28.20;49.80;;;;;;4922399;29;20759;-77
2023/08/19 14:04:06;;;;;;;0.00;0.00;;;28.10;50.00;;;;;;4922816;29;20131;-77
2023/08/19 14:06:31;;;;;;;0.10;0.10;;;28.20;48.10;;;;;;4922703;29;20028;-77
2023/08/19 14:08:57;;;;;;;0.10;0.10;;;28.30;49.50;;;;;;4922230;29;20032;-77
2023/08/19 14:11:23;;;;;;;0.03;0.03;;;28.10;47.60;;;;;;4922789;29;20043;-77
2023/08/19 14:13:49;;;;;;;0.00;0.00;;;28.10;46.70;;;;;;4922658;29;20490;-77
2023/08/19 14:16:15;;;;;;;0.10;0.10;;;28.10;47.20;;;;;;4921287;29;20115;-77
2023/08/19 14:18:40;;;;;;;0.10;0.10;;;28.10;48.10;;;;;;4922527;29;20103;-77
2023/08/19 14:21:06;;;;;;;0.10;0.10;;;28.10;48.30;;;;;;4922590;29;20039;-77
2023/08/19 14:23:32;;;;;;;0.00;0.00;;;28.00;47.40;;;;;;4922329;29;20395;-77
2023/08/19 14:25:57;;;;;;;0.00;0.00;;;28.00;47.40;;;;;;4922377;29;20386;-76
2023/08/19 14:28:23;;;;;;;0.10;0.10;;;27.90;47.90;;;;;;4922277;29;20036;-76
2023/08/19 14:30:48;;;;;;;0.00;0.00;;;28.00;48.80;;;;;;4922259;29;20044;-76
2023/08/19 14:33:14;;;;;;;0.10;0.10;;;27.90;49.10;;;;;;4907497;29;20471;-76
2023/08/19 14:35:43;;;;;;;0.10;0.10;;;27.90;49.30;;;;;;4921701;29;20504;-77
2023/08/19 14:38:09;;;;;;;0.10;0.10;;;27.90;47.60;;;;;;4921971;29;20075;-77
2023/08/19 14:40:35;;;;;;;0.10;0.10;;;28.00;47.60;;;;;;4922178;29;20511;-76
2023/08/19 14:43:00;;;;;;;0.00;0.00;;;28.10;47.00;;;;;;4921982;29;20032;-76
2023/08/19 14:45:26;;;;;;;0.00;0.00;;;28.00;46.70;;;;;;4904912;29;20028;-77
2023/08/19 14:47:52;;;;;;;0.10;0.10;;;28.00;46.00;;;;;;4904954;29;20024;-77
2023/08/19 14:50:17;;;;;;;0.10;0.10;;;28.00;47.20;;;;;;4904755;29;20044;-77
2023/08/19 14:52:43;;;;;;;0.05;0.05;;;28.00;47.20;;;;;;4921781;29;20032;-77
2023/08/19 14:55:09;;;;;;;0.10;0.10;;;28.00;47.40;;;;;;4921492;29;20028;-77
2023/08/19 14:57:34;;;;;;;0.00;0.00;;;28.00;47.30;;;;;;4904821;29;20606;-76
2023/08/19 15:00:00;;;;;;;0.00;0.00;;;28.00;48.00;;;;;;4921685;29;20027;-77
2023/08/19 15:02:41;;;;;;;0.10;0.10;;;28.10;47.80;;;;;;4921614;29;20125;-76
2023/08/19 15:05:07;;;;;;;0.10;0.10;;;28.10;48.40;;;;;;4921735;29;20030;-77
2023/08/19 15:07:32;;;;;;;0.10;0.10;;;28.10;49.10;;;;;;4921406;29;20027;-76
2023/08/19 15:09:58;;;;;;;0.03;0.03;;;28.10;48.90;;;;;;4921720;29;20107;-76
2023/08/19 15:12:24;;;;;;;0.00;0.00;;;28.20;46.90;;;;;;4921666;29;20020;-76
2023/08/19 15:14:49;;;;;;;0.00;0.00;;;28.20;46.70;;;;;;4904518;29;20040;-77
2023/08/19 15:17:15;;;;;;;0.10;0.10;;;28.00;47.20;;;;;;4921475;29;20087;-77
2023/08/19 15:19:40;;;;;;;0.10;0.10;;;28.00;46.70;;;;;;4921659;29;20036;-77
2023/08/19 15:22:06;;;;;;;0.10;0.10;;;27.90;47.50;;;;;;4921304;29;20028;-77
2023/08/19 15:24:31;;;;;;;0.00;0.00;;;27.90;47.10;;;;;;4904440;29;20576;-77
2023/08/19 15:26:57;;;;;;;0.08;0.08;;;27.80;46.50;;;;;;4921347;29;20028;-77
2023/08/19 15:29:23;;;;;;;0.00;0.00;;;27.80;46.70;;;;;;4904213;29;20021;-77
2023/08/19 15:31:48;;;;;;;0.00;0.00;;;27.80;46.70;;;;;;4920691;29;20044;-77
2023/08/19 15:34:14;;;;;;;0.00;0.00;;;27.80;47.40;;;;;;4921439;29;20037;-77
2023/08/19 15:36:39;;;;;;;0.00;0.00;;;27.80;46.70;;;;;;4921227;29;20483;-77
2023/08/19 15:39:05;;;;;;;0.00;0.00;;;27.80;47.50;;;;;;4921411;29;20082;-77
2023/08/19 15:41:31;;;;;;;0.00;0.00;;;27.90;48.10;;;;;;4903989;29;20403;-76
2023/08/19 15:43:56;;;;;;;0.00;0.00;;;27.80;46.80;;;;;;4921343;29;20096;-77
2023/08/19 15:46:22;;;;;;;0.00;0.00;;;27.80;47.60;;;;;;4921088;29;20032;-77
2023/08/19 15:48:48;;;;;;;0.05;0.05;;;27.90;46.30;;;;;;4921213;29;20036;-77
2023/08/19 15:51:14;;;;;;;0.00;0.00;;;27.80;45.70;;;;;;4921215;29;20128;-77
2023/08/19 15:53:39;;;;;;;0.00;0.00;;;27.80;46.00;;;;;;4921343;29;20476;-77
2023/08/19 15:56:05;;;;;;;0.10;0.10;;;27.80;46.80;;;;;;4920844;29;20092;-77
2023/08/19 15:58:30;;;;;;;0.00;0.00;;;27.60;46.50;;;;;;4921198;29;20146;-77
2023/08/19 16:00:56;;;;;;;0.10;0.10;;;27.60;46.80;;;;;;4920914;29;20526;-77
2023/08/19 16:03:22;;;;;;;0.00;0.00;;;27.50;45.40;;;;;;4911196;29;20040;-77
2023/08/19 16:05:47;;;;;;;0.00;0.00;;;27.50;45.80;;;;;;4920059;29;20030;-77
2023/08/19 16:08:13;;;;;;;0.00;0.00;;;27.50;46.90;;;;;;4922651;29;20020;-77
2023/08/19 16:10:38;;;;;;;0.00;0.00;;;27.60;46.90;;;;;;4925210;29;20020;-77
2023/08/19 16:13:04;;;;;;;0.00;0.00;;;27.50;47.20;;;;;;4924550;29;20159;-77
2023/08/19 16:15:30;;;;;;;0.00;0.00;;;27.30;48.20;;;;;;4924681;29;20475;-77
2023/08/19 16:17:56;;;;;;;0.10;0.10;;;27.30;49.40;;;;;;4924813;29;20035;-77
2023/08/19 16:20:22;;;;;;;0.00;0.00;;;27.20;49.20;;;;;;4924743;29;20084;-77
2023/08/19 16:22:47;;;;;;;0.00;0.00;;;27.20;48.70;;;;;;4924694;29;20506;-77
2023/08/19 16:25:13;;;;;;;0.00;0.00;;;27.30;49.80;;;;;;4923313;29;20562;-77
2023/08/19 16:27:39;;;;;;;0.00;0.00;;;27.30;48.80;;;;;;4924624;29;20038;-77
2023/08/19 16:30:05;;;;;;;0.00;0.00;;;27.10;48.40;;;;;;4924394;29;20024;-77
2023/08/19 16:32:31;;;;;;;0.00;0.00;;;26.90;48.70;;;;;;4910795;29;20060;-77
2023/08/19 16:34:57;;;;;;;0.00;0.00;;;26.80;49.30;;;;;;4924396;29;20395;-77
2023/08/19 16:37:23;;;;;;;0.00;0.00;;;26.90;48.60;;;;;;4924204;29;20032;-77
2023/08/19 16:39:48;;;;;;;0.00;0.00;;;26.90;49.40;;;;;;4924477;29;20151;-77
2023/08/19 16:42:14;;;;;;;0.00;0.00;;;26.90;48.90;;;;;;4924354;29;20028;-77
2023/08/19 16:44:40;;;;;;;0.00;0.00;;;26.70;49.60;;;;;;4924203;29;20407;-77
2023/08/19 16:47:06;;;;;;;0.00;0.00;;;26.60;50.30;;;;;;4924177;29;20135;-77
2023/08/19 16:49:32;;;;;;;0.00;0.00;;;26.70;50.40;;;;;;4924151;29;20035;-77
2023/08/19 16:51:57;;;;;;;0.00;0.00;;;26.80;50.80;;;;;;4924152;29;20028;-77
2023/08/19 16:54:23;;;;;;;0.00;0.00;;;26.80;50.10;;;;;;4924166;29;20107;-77
2023/08/19 16:56:49;;;;;;;0.00;0.00;;;27.00;49.80;;;;;;4923957;29;20024;-77
2023/08/19 16:59:14;;;;;;;0.00;0.00;;;27.00;49.90;;;;;;4924327;29;20025;-77
2023/08/19 17:01:40;;;;;;;0.00;0.00;;;27.00;49.50;;;;;;4906435;29;20039;-77
2023/08/19 17:04:05;;;;;;;0.00;0.00;;;26.80;49.00;;;;;;4906832;29;20036;-77
2023/08/19 17:06:31;;;;;;;0.00;0.00;;;26.80;49.40;;;;;;4923725;29;20396;-77
2023/08/19 17:09:00;;;;;;;0.00;0.00;;;26.80;49.80;;;;;;4923856;29;20031;-77
2023/08/19 17:11:26;;;;;;;0.00;0.00;;;26.60;50.00;;;;;;4906988;29;20056;-77
2023/08/19 17:13:52;;;;;;;0.00;0.00;;;26.50;50.60;;;;;;4906662;29;20025;-77
2023/08/19 17:16:17;;;;;;;0.00;0.00;;;26.50;51.20;;;;;;4906630;29;20506;-77